Time;durP1;ratioP1;P1;durP2;ratioP2;P2;SDS_P1;SDS_P2;PMS_P1;PMS_P2;Temp;Humidity;BMP_temperature;BMP_pressure;BME280_temperature;BME280_humidity;BME280_pressure;Samples;Min_cycle;Max_cycle;Signal;HPM_P1;HPM_P2
2021/06/07 00:02:07;;;;;;;27.47;11.07;;;;;;;;;;5078019;28;20107;-64
2021/06/07 00:04:33;;;;;;;24.20;11.53;;;;;;;;;;5081240;28;20364;-63
2021/06/07 00:06:59;;;;;;;24.83;11.10;;;;;;;;;;5076083;28;20084;-64
2021/06/07 00:09:25;;;;;;;26.43;11.63;;;;;;;;;;5081498;28;20123;-64
2021/06/07 00:11:52;;;;;;;23.70;11.23;;;;;;;;;;5072077;28;20211;-64
2021/06/07 00:14:19;;;;;;;24.97;11.20;;;;;;;;;;5081693;28;20040;-64
2021/06/07 00:16:44;;;;;;;26.13;11.37;;;;;;;;;;5085473;28;20107;-64
2021/06/07 00:19:11;;;;;;;29.63;11.87;;;;;;;;;;5085921;28;20115;-64
2021/06/07 00:21:37;;;;;;;24.93;11.67;;;;;;;;;;5078974;28;20017;-64
2021/06/07 00:24:03;;;;;;;30.37;11.80;;;;;;;;;;5081873;28;20016;-64
2021/06/07 00:26:28;;;;;;;22.27;10.57;;;;;;;;;;5083206;28;20017;-64
2021/06/07 00:28:54;;;;;;;27.07;11.13;;;;;;;;;;5079486;28;20028;-64
2021/06/07 00:31:20;;;;;;;22.57;10.90;;;;;;;;;;5083100;28;20030;-64
2021/06/07 00:33:45;;;;;;;25.73;11.47;;;;;;;;;;5083290;28;20103;-64
2021/06/07 00:36:12;;;;;;;23.97;10.83;;;;;;;;;;5076176;28;20409;-64
2021/06/07 00:38:38;;;;;;;22.40;10.77;;;;;;;;;;5076622;28;20023;-64
2021/06/07 00:41:05;;;;;;;20.93;10.40;;;;;;;;;;5078487;28;20024;-64
2021/06/07 00:43:30;;;;;;;23.53;11.07;;;;;;;;;;5082015;28;20471;-64
2021/06/07 00:45:56;;;;;;;23.57;10.17;;;;;;;;;;5080704;28;20024;-64
2021/06/07 00:48:21;;;;;;;24.27;10.13;;;;;;;;;;5081347;28;20035;-64
2021/06/07 00:50:53;;;;;;;25.40;10.47;;;;;;;;;;5082177;28;20444;-64
2021/06/07 00:53:19;;;;;;;21.63;9.87;;;;;;;;;;5080390;28;20169;-64
2021/06/07 00:55:50;;;;;;;19.23;9.23;;;;;;;;;;5085154;28;20107;-64
2021/06/07 00:58:20;;;;;;;21.30;10.02;;;;;;;;;;5084980;28;20016;-64
2021/06/07 01:00:46;;;;;;;21.67;9.30;;;;;;;;;;5084484;28;20020;-64
2021/06/07 01:03:12;;;;;;;23.10;9.87;;;;;;;;;;5079096;22;20503;-69
2021/06/07 01:05:37;;;;;;;20.17;10.30;;;;;;;;;;5073516;28;20387;-69
2021/06/07 01:08:03;;;;;;;22.37;9.70;;;;;;;;;;5074936;28;20036;-69
2021/06/07 01:10:28;;;;;;;18.70;10.23;;;;;;;;;;5074529;28;20020;-69
2021/06/07 01:12:54;;;;;;;20.47;9.60;;;;;;;;;;5072861;28;20062;-69
2021/06/07 01:15:20;;;;;;;18.87;9.60;;;;;;;;;;5075517;28;20542;-69
2021/06/07 01:17:45;;;;;;;22.47;9.73;;;;;;;;;;5070337;28;20550;-69
2021/06/07 01:20:13;;;;;;;15.97;8.90;;;;;;;;;;5070592;28;20357;-69
2021/06/07 01:22:39;;;;;;;16.97;8.93;;;;;;;;;;5069724;28;20028;-69
2021/06/07 01:25:07;;;;;;;18.30;8.80;;;;;;;;;;5070404;28;20028;-69
2021/06/07 01:27:33;;;;;;;18.30;9.70;;;;;;;;;;5067694;28;20035;-69
2021/06/07 01:29:58;;;;;;;17.97;9.03;;;;;;;;;;5074618;28;20387;-69
2021/06/07 01:32:25;;;;;;;23.47;9.70;;;;;;;;;;5069788;28;20056;-69
2021/06/07 01:34:51;;;;;;;22.10;9.40;;;;;;;;;;5069562;28;20031;-69
2021/06/07 01:37:16;;;;;;;17.50;9.50;;;;;;;;;;5069027;28;20024;-69
2021/06/07 01:39:41;;;;;;;21.07;9.40;;;;;;;;;;5071304;28;20024;-69
2021/06/07 01:42:07;;;;;;;20.07;9.43;;;;;;;;;;5068630;28;20024;-69
2021/06/07 01:44:32;;;;;;;20.23;9.93;;;;;;;;;;5070074;28;20043;-69
2021/06/07 01:46:57;;;;;;;23.87;9.60;;;;;;;;;;5074356;28;20368;-69
2021/06/07 01:49:23;;;;;;;19.03;9.50;;;;;;;;;;5071455;28;20444;-69
2021/06/07 01:51:48;;;;;;;21.53;9.63;;;;;;;;;;5071989;28;20037;-69
2021/06/07 01:54:14;;;;;;;21.50;10.27;;;;;;;;;;5070022;28;20020;-69
2021/06/07 01:56:39;;;;;;;21.17;10.47;;;;;;;;;;5070369;28;20028;-69
2021/06/07 01:59:04;;;;;;;23.30;10.60;;;;;;;;;;5069878;28;20380;-69
2021/06/07 02:01:30;;;;;;;21.80;10.23;;;;;;;;;;5068427;28;20100;-69
2021/06/07 02:03:55;;;;;;;24.40;10.63;;;;;;;;;;5091658;28;20044;-70
2021/06/07 02:06:21;;;;;;;20.70;10.90;;;;;;;;;;5092524;28;20152;-70
2021/06/07 02:08:47;;;;;;;18.87;9.87;;;;;;;;;;5091720;28;20062;-71
2021/06/07 02:11:15;;;;;;;22.90;10.40;;;;;;;;;;5090857;28;20066;-71
2021/06/07 02:13:40;;;;;;;23.20;10.13;;;;;;;;;;5089532;28;20069;-71
2021/06/07 02:16:08;;;;;;;20.83;10.17;;;;;;;;;;5089518;28;20115;-71
2021/06/07 02:18:34;;;;;;;21.03;10.17;;;;;;;;;;5096778;28;20020;-71
2021/06/07 02:21:00;;;;;;;23.77;9.83;;;;;;;;;;5090150;28;20032;-71
2021/06/07 02:23:25;;;;;;;22.43;10.20;;;;;;;;;;5090814;28;20019;-71
2021/06/07 02:25:51;;;;;;;25.77;10.63;;;;;;;;;;5092116;28;20103;-71
2021/06/07 02:28:17;;;;;;;25.10;9.70;;;;;;;;;;5091000;28;20354;-71
2021/06/07 02:30:43;;;;;;;21.97;10.40;;;;;;;;;;5090163;28;20028;-71
2021/06/07 02:33:09;;;;;;;21.17;10.13;;;;;;;;;;5085360;28;20134;-71
2021/06/07 02:35:34;;;;;;;23.80;11.00;;;;;;;;;;5086854;28;20020;-69
2021/06/07 02:38:00;;;;;;;22.60;10.97;;;;;;;;;;5090023;28;20024;-69
2021/06/07 02:40:26;;;;;;;24.30;10.53;;;;;;;;;;5090377;28;20023;-69
2021/06/07 02:42:52;;;;;;;22.37;10.80;;;;;;;;;;5086245;28;20017;-69
2021/06/07 02:45:18;;;;;;;23.47;10.30;;;;;;;;;;5090363;28;20024;-70
2021/06/07 02:47:45;;;;;;;25.87;10.90;;;;;;;;;;5089276;28;20031;-70
2021/06/07 02:50:11;;;;;;;23.43;10.53;;;;;;;;;;5092395;28;20073;-70
2021/06/07 02:52:46;;;;;;;23.90;10.93;;;;;;;;;;5089797;28;20016;-70
2021/06/07 02:55:16;;;;;;;24.17;10.10;;;;;;;;;;5095030;28;20028;-70
2021/06/07 02:57:41;;;;;;;26.40;11.07;;;;;;;;;;5092691;28;20516;-69
2021/06/07 03:00:07;;;;;;;28.03;10.93;;;;;;;;;;5089503;28;20024;-69
2021/06/07 03:02:32;;;;;;;24.63;10.43;;;;;;;;;;5087463;28;20046;-69
2021/06/07 03:04:57;;;;;;;24.77;11.13;;;;;;;;;;5087079;28;20028;-69
2021/06/07 03:07:23;;;;;;;24.13;11.10;;;;;;;;;;5091257;28;20028;-69
2021/06/07 03:09:48;;;;;;;21.33;10.93;;;;;;;;;;5091531;28;20067;-69
2021/06/07 03:12:13;;;;;;;25.53;11.07;;;;;;;;;;5088160;28;20380;-69
2021/06/07 03:14:42;;;;;;;22.83;10.07;;;;;;;;;;5091314;28;20618;-69
2021/06/07 03:17:07;;;;;;;21.00;10.37;;;;;;;;;;5092350;28;20055;-69
2021/06/07 03:19:35;;;;;;;21.97;10.10;;;;;;;;;;5088336;28;20457;-69
2021/06/07 03:22:01;;;;;;;22.07;10.87;;;;;;;;;;5091750;28;20045;-69
2021/06/07 03:24:26;;;;;;;24.00;11.17;;;;;;;;;;5089715;28;20024;-69
2021/06/07 03:26:51;;;;;;;25.80;10.83;;;;;;;;;;5092021;28;20380;-69
2021/06/07 03:29:17;;;;;;;19.97;10.00;;;;;;;;;;5096637;28;20428;-69
2021/06/07 03:31:42;;;;;;;23.70;11.00;;;;;;;;;;5092441;28;20471;-70
2021/06/07 03:34:07;;;;;;;19.43;9.47;;;;;;;;;;5095213;28;20055;-69
2021/06/07 03:36:33;;;;;;;18.53;8.47;;;;;;;;;;5091132;28;20117;-70
2021/06/07 03:38:58;;;;;;;22.23;10.10;;;;;;;;;;5091291;28;20085;-69
2021/06/07 03:41:24;;;;;;;20.93;10.13;;;;;;;;;;5092007;28;20492;-69
2021/06/07 03:43:49;;;;;;;19.90;9.47;;;;;;;;;;5092476;28;20773;-69
2021/06/07 03:46:14;;;;;;;21.83;10.17;;;;;;;;;;5087025;28;20205;-69
2021/06/07 03:48:40;;;;;;;19.13;10.03;;;;;;;;;;5095111;28;20106;-69
2021/06/07 03:51:05;;;;;;;23.57;10.47;;;;;;;;;;5094704;28;20032;-69
2021/06/07 03:53:30;;;;;;;23.20;10.03;;;;;;;;;;5092527;28;20474;-69
2021/06/07 03:55:56;;;;;;;23.77;9.43;;;;;;;;;;5092534;28;20076;-69
2021/06/07 03:58:22;;;;;;;17.80;8.83;;;;;;;;;;5088657;28;20020;-69
2021/06/07 04:00:47;;;;;;;21.00;9.40;;;;;;;;;;5091546;28;20012;-69
2021/06/07 04:03:12;;;;;;;20.30;9.37;;;;;;;;;;5092013;28;20111;-69
2021/06/07 04:05:38;;;;;;;18.33;9.33;;;;;;;;;;5094357;28;20020;-69
2021/06/07 04:08:05;;;;;;;21.40;9.47;;;;;;;;;;5091569;28;20107;-69
2021/06/07 04:10:30;;;;;;;19.47;8.97;;;;;;;;;;5088927;28;20024;-69
2021/06/07 04:12:56;;;;;;;21.27;9.80;;;;;;;;;;5091357;28;20032;-69
2021/06/07 04:15:22;;;;;;;22.87;9.40;;;;;;;;;;5091625;28;20092;-69
2021/06/07 04:17:48;;;;;;;18.83;9.07;;;;;;;;;;5090142;28;20368;-69
2021/06/07 04:20:14;;;;;;;19.03;9.13;;;;;;;;;;5092051;28;20050;-69
2021/06/07 04:22:40;;;;;;;18.17;7.77;;;;;;;;;;5091834;28;20012;-69
2021/06/07 04:25:06;;;;;;;20.47;8.90;;;;;;;;;;5100265;28;20022;-69
2021/06/07 04:27:32;;;;;;;19.73;8.57;;;;;;;;;;5089618;28;20049;-69
2021/06/07 04:29:57;;;;;;;19.80;7.93;;;;;;;;;;5093105;28;20024;-69
2021/06/07 04:32:22;;;;;;;15.83;8.27;;;;;;;;;;5091294;28;20483;-69
2021/06/07 04:34:48;;;;;;;18.97;8.90;;;;;;;;;;5092123;28;20487;-69
2021/06/07 04:37:13;;;;;;;18.93;8.03;;;;;;;;;;5091317;28;20522;-69
2021/06/07 04:39:39;;;;;;;16.97;7.93;;;;;;;;;;5092755;28;20023;-69
2021/06/07 04:42:05;;;;;;;14.83;7.87;;;;;;;;;;5091939;28;20071;-69
2021/06/07 04:44:31;;;;;;;17.90;8.13;;;;;;;;;;5091971;28;20084;-70
2021/06/07 04:46:56;;;;;;;15.23;7.27;;;;;;;;;;5091184;28;20032;-69
2021/06/07 04:49:21;;;;;;;16.37;7.70;;;;;;;;;;5091773;28;20032;-69
2021/06/07 04:51:47;;;;;;;15.30;7.33;;;;;;;;;;5090933;28;20027;-69
2021/06/07 04:54:12;;;;;;;16.27;7.33;;;;;;;;;;5091671;28;20031;-69
2021/06/07 04:56:37;;;;;;;14.63;7.97;;;;;;;;;;5091638;28;20035;-69
2021/06/07 04:59:03;;;;;;;15.77;8.17;;;;;;;;;;5092468;28;20095;-69
2021/06/07 05:01:28;;;;;;;19.33;7.57;;;;;;;;;;5091497;28;20024;-69
2021/06/07 05:03:53;;;;;;;20.23;8.87;;;;;;;;;;5091393;28;20387;-69
2021/06/07 05:06:19;;;;;;;16.63;7.77;;;;;;;;;;5091125;28;20028;-69
2021/06/07 05:08:44;;;;;;;18.17;8.00;;;;;;;;;;5095734;28;20095;-69
2021/06/07 05:11:09;;;;;;;13.57;7.13;;;;;;;;;;5092061;28;20024;-69
2021/06/07 05:13:35;;;;;;;18.47;8.00;;;;;;;;;;5073969;28;20518;-69
2021/06/07 05:16:00;;;;;;;16.37;7.40;;;;;;;;;;5094761;28;20035;-69
2021/06/07 05:18:26;;;;;;;15.67;7.40;;;;;;;;;;5091896;28;20435;-69
2021/06/07 05:20:52;;;;;;;16.77;7.53;;;;;;;;;;5091232;28;20452;-70
2021/06/07 05:23:17;;;;;;;13.40;7.23;;;;;;;;;;5091599;28;20016;-69
2021/06/07 05:25:43;;;;;;;19.33;7.77;;;;;;;;;;5091173;28;20036;-69
2021/06/07 05:28:09;;;;;;;17.13;7.63;;;;;;;;;;5091588;28;20032;-70
2021/06/07 05:30:35;;;;;;;19.67;7.30;;;;;;;;;;5091280;28;20444;-70
2021/06/07 05:33:01;;;;;;;15.37;7.30;;;;;;;;;;5090159;28;20101;-70
2021/06/07 05:35:28;;;;;;;14.83;7.00;;;;;;;;;;5091089;28;20411;-70
2021/06/07 05:37:53;;;;;;;14.07;6.60;;;;;;;;;;5091215;28;20490;-70
2021/06/07 05:40:19;;;;;;;16.73;7.17;;;;;;;;;;5090374;28;21102;-70
2021/06/07 05:42:45;;;;;;;14.67;6.97;;;;;;;;;;5090918;28;20115;-70
2021/06/07 05:45:11;;;;;;;15.20;7.10;;;;;;;;;;5090705;28;20142;-70
2021/06/07 05:47:37;;;;;;;13.27;6.30;;;;;;;;;;5090923;28;20028;-70
2021/06/07 05:50:03;;;;;;;14.33;7.00;;;;;;;;;;5090752;28;20033;-70
2021/06/07 05:52:29;;;;;;;14.83;7.07;;;;;;;;;;5091563;28;20077;-70
2021/06/07 05:54:54;;;;;;;13.23;6.77;;;;;;;;;;5091392;28;20032;-70
2021/06/07 05:57:19;;;;;;;18.60;6.80;;;;;;;;;;5091389;28;20110;-69
2021/06/07 05:59:45;;;;;;;13.00;7.10;;;;;;;;;;5091185;28;20106;-69
2021/06/07 06:02:10;;;;;;;16.87;6.93;;;;;;;;;;5090867;28;20139;-69
2021/06/07 06:04:36;;;;;;;16.67;7.27;;;;;;;;;;5091384;28;20510;-69
2021/06/07 06:07:02;;;;;;;13.10;6.40;;;;;;;;;;5090780;28;20058;-69
2021/06/07 06:09:28;;;;;;;16.23;7.60;;;;;;;;;;5089861;28;20404;-69
2021/06/07 06:11:54;;;;;;;13.47;6.63;;;;;;;;;;5091484;28;20103;-69
2021/06/07 06:14:19;;;;;;;14.07;7.30;;;;;;;;;;5091437;28;20392;-69
2021/06/07 06:16:44;;;;;;;15.13;6.87;;;;;;;;;;5090733;28;20039;-69
2021/06/07 06:19:11;;;;;;;13.30;6.60;;;;;;;;;;5091531;28;20024;-69
2021/06/07 06:21:39;;;;;;;13.87;7.33;;;;;;;;;;5090453;28;20020;-69
2021/06/07 06:24:06;;;;;;;13.10;6.83;;;;;;;;;;5091474;28;20020;-69
2021/06/07 06:26:31;;;;;;;14.60;6.60;;;;;;;;;;5090398;28;20024;-69
2021/06/07 06:28:56;;;;;;;13.43;6.60;;;;;;;;;;5091432;28;20035;-69
2021/06/07 06:31:22;;;;;;;15.23;7.17;;;;;;;;;;5090805;28;20110;-69
2021/06/07 06:33:47;;;;;;;11.77;6.73;;;;;;;;;;5089977;28;20555;-69
2021/06/07 06:36:12;;;;;;;12.40;6.90;;;;;;;;;;5090293;28;20372;-69
2021/06/07 06:38:38;;;;;;;15.13;6.80;;;;;;;;;;5091264;28;20463;-69
2021/06/07 06:41:04;;;;;;;14.43;6.53;;;;;;;;;;5091861;28;20535;-69
2021/06/07 06:43:29;;;;;;;11.60;6.47;;;;;;;;;;5093581;28;20471;-69
2021/06/07 06:45:54;;;;;;;13.40;5.70;;;;;;;;;;5095139;28;20062;-69
2021/06/07 06:48:20;;;;;;;11.30;6.17;;;;;;;;;;5095021;28;20057;-70
2021/06/07 06:50:45;;;;;;;15.10;6.40;;;;;;;;;;5093894;28;20035;-70
2021/06/07 06:53:13;;;;;;;11.93;5.83;;;;;;;;;;5094231;28;20081;-70
2021/06/07 06:55:38;;;;;;;11.13;6.03;;;;;;;;;;5093898;28;20048;-70
2021/06/07 06:58:04;;;;;;;10.87;5.53;;;;;;;;;;5094647;28;20063;-70
2021/06/07 07:00:31;;;;;;;14.17;6.47;;;;;;;;;;5094766;28;20031;-70
2021/06/07 07:02:57;;;;;;;14.10;6.50;;;;;;;;;;5093743;28;20564;-70
2021/06/07 07:05:22;;;;;;;9.83;5.63;;;;;;;;;;5093328;28;20023;-70
2021/06/07 07:07:47;;;;;;;12.00;5.37;;;;;;;;;;5092825;28;20491;-70
2021/06/07 07:10:13;;;;;;;12.10;5.60;;;;;;;;;;5093648;28;20110;-70
2021/06/07 07:12:38;;;;;;;10.70;5.35;;;;;;;;;;5094598;28;20076;-69
2021/06/07 07:15:04;;;;;;;10.98;5.45;;;;;;;;;;5094371;28;20492;-69
2021/06/07 07:17:30;;;;;;;10.77;4.90;;;;;;;;;;5093391;28;20103;-69
2021/06/07 07:19:58;;;;;;;11.00;5.93;;;;;;;;;;5094563;28;20100;-69
2021/06/07 07:22:24;;;;;;;9.98;5.70;;;;;;;;;;5094025;28;20024;-69
2021/06/07 07:24:49;;;;;;;13.32;5.90;;;;;;;;;;5093659;28;20142;-69
2021/06/07 07:27:16;;;;;;;9.43;4.63;;;;;;;;;;5093359;28;20032;-69
2021/06/07 07:29:42;;;;;;;8.50;5.05;;;;;;;;;;5089372;28;20036;-69
2021/06/07 07:32:08;;;;;;;8.77;4.75;;;;;;;;;;5093676;28;20032;-69
2021/06/07 07:34:34;;;;;;;9.77;5.05;;;;;;;;;;5093909;28;20036;-69
2021/06/07 07:37:00;;;;;;;11.13;5.53;;;;;;;;;;5093382;28;20036;-69
2021/06/07 07:39:25;;;;;;;9.10;5.38;;;;;;;;;;5094203;28;20467;-69
2021/06/07 07:41:51;;;;;;;10.25;5.15;;;;;;;;;;5092278;28;20050;-69
2021/06/07 07:44:17;;;;;;;10.07;4.72;;;;;;;;;;5093888;28;20178;-69
2021/06/07 07:46:42;;;;;;;9.65;5.13;;;;;;;;;;5093436;28;20091;-69
2021/06/07 07:49:07;;;;;;;10.10;5.03;;;;;;;;;;5093446;28;20032;-69
2021/06/07 07:51:33;;;;;;;10.00;5.60;;;;;;;;;;5093086;28;20035;-69
2021/06/07 07:53:58;;;;;;;8.32;5.13;;;;;;;;;;5093605;28;20410;-69
2021/06/07 07:56:24;;;;;;;10.57;5.35;;;;;;;;;;5092701;28;20043;-69
2021/06/07 07:58:50;;;;;;;8.02;5.35;;;;;;;;;;5093503;28;20031;-69
2021/06/07 08:01:15;;;;;;;9.95;5.28;;;;;;;;;;5093014;28;20028;-69
2021/06/07 08:03:40;;;;;;;10.73;5.13;;;;;;;;;;5091768;28;20048;-69
2021/06/07 08:06:08;;;;;;;9.05;5.60;;;;;;;;;;5102141;28;20142;-69
2021/06/07 08:08:33;;;;;;;9.48;5.40;;;;;;;;;;5093985;28;20099;-69
2021/06/07 08:10:58;;;;;;;7.78;4.13;;;;;;;;;;5093519;28;20048;-70
2021/06/07 08:13:24;;;;;;;9.27;4.60;;;;;;;;;;5093742;28;20023;-70
2021/06/07 08:15:50;;;;;;;8.32;4.80;;;;;;;;;;5093446;28;20028;-70
2021/06/07 08:18:15;;;;;;;8.32;4.50;;;;;;;;;;5092905;28;20430;-70
2021/06/07 08:20:40;;;;;;;8.68;4.28;;;;;;;;;;5091325;28;20058;-69
2021/06/07 08:23:06;;;;;;;7.78;3.75;;;;;;;;;;5093170;28;20130;-69
2021/06/07 08:25:31;;;;;;;7.97;4.50;;;;;;;;;;5090994;28;20451;-69
2021/06/07 08:27:56;;;;;;;7.45;3.72;;;;;;;;;;5092970;28;20527;-69
2021/06/07 08:30:22;;;;;;;8.80;3.72;;;;;;;;;;5092898;28;20402;-69
2021/06/07 08:32:48;;;;;;;6.30;3.58;;;;;;;;;;5088593;28;20027;-69
2021/06/07 08:35:13;;;;;;;5.93;3.35;;;;;;;;;;5089575;28;20027;-69
2021/06/07 08:37:38;;;;;;;7.30;3.97;;;;;;;;;;5089258;28;20032;-69
2021/06/07 08:40:05;;;;;;;6.25;3.20;;;;;;;;;;5091985;28;20048;-69
2021/06/07 08:42:31;;;;;;;7.32;3.40;;;;;;;;;;5089573;28;20016;-69
2021/06/07 08:44:57;;;;;;;4.97;2.88;;;;;;;;;;5090108;28;20107;-69
2021/06/07 08:47:22;;;;;;;7.18;3.08;;;;;;;;;;5089581;28;20111;-69
2021/06/07 08:49:47;;;;;;;4.78;2.70;;;;;;;;;;5090227;28;20030;-69
2021/06/07 08:52:14;;;;;;;6.32;2.53;;;;;;;;;;5089255;28;20434;-69
2021/06/07 08:54:40;;;;;;;5.72;3.00;;;;;;;;;;5089509;28;20073;-69
2021/06/07 08:57:05;;;;;;;5.03;2.83;;;;;;;;;;5089193;28;20297;-69
2021/06/07 08:59:31;;;;;;;6.82;2.80;;;;;;;;;;5087695;28;20346;-70
2021/06/07 09:02:00;;;;;;;7.70;3.22;;;;;;;;;;5088203;28;20047;-69
2021/06/07 09:04:26;;;;;;;5.10;2.28;;;;;;;;;;5088599;28;20058;-70
2021/06/07 09:06:51;;;;;;;4.00;2.50;;;;;;;;;;5089417;28;20055;-70
2021/06/07 09:09:18;;;;;;;4.60;2.65;;;;;;;;;;5089535;28;20408;-69
2021/06/07 09:11:57;;;;;;;5.72;2.60;;;;;;;;;;5077405;28;20119;-69
2021/06/07 09:14:26;;;;;;;5.82;2.58;;;;;;;;;;5089439;28;20024;-69
2021/06/07 09:16:52;;;;;;;3.72;2.30;;;;;;;;;;5087820;28;20035;-69
2021/06/07 09:19:21;;;;;;;6.47;2.67;;;;;;;;;;5088302;28;20020;-70
2021/06/07 09:21:46;;;;;;;4.60;2.53;;;;;;;;;;5086869;28;20442;-70
2021/06/07 09:24:13;;;;;;;4.68;2.30;;;;;;;;;;5086900;28;20127;-70
2021/06/07 09:26:40;;;;;;;5.20;2.40;;;;;;;;;;5088287;28;20028;-69
2021/06/07 09:29:07;;;;;;;5.05;2.53;;;;;;;;;;5088702;28;20494;-69
2021/06/07 09:31:42;;;;;;;6.30;2.45;;;;;;;;;;5088847;28;20055;-69
2021/06/07 09:34:09;;;;;;;4.63;2.42;;;;;;;;;;5088570;28;20554;-69
2021/06/07 09:36:35;;;;;;;5.10;1.98;;;;;;;;;;5088456;28;20028;-69
2021/06/07 09:39:15;;;;;;;5.32;2.35;;;;;;;;;;5088181;28;20032;-69
2021/06/07 09:42:00;;;;;;;5.25;2.30;;;;;;;;;;5088334;28;20032;-69
2021/06/07 09:44:28;;;;;;;4.22;2.22;;;;;;;;;;5067696;28;20044;-70
2021/06/07 09:47:06;;;;;;;5.05;2.40;;;;;;;;;;5087845;28;20031;-70
2021/06/07 09:52:33;;;;;;;5.57;2.55;;;;;;;;;;5024030;28;20144;-69
2021/06/07 09:55:31;;;;;;;5.22;2.67;;;;;;;;;;5024754;28;20381;-70
2021/06/07 09:57:58;;;;;;;7.45;2.60;;;;;;;;;;4993150;28;20899;-70
2021/06/07 10:00:43;;;;;;;6.10;3.13;;;;;;;;;;5025644;28;20117;-70
2021/06/07 10:03:27;;;;;;;4.97;3.35;;;;;;;;;;5023698;28;20041;-70
2021/06/07 10:05:55;;;;;;;6.07;3.90;;;;;;;;;;5025051;28;20026;-70
2021/06/07 10:08:22;;;;;;;7.70;3.85;;;;;;;;;;5025459;28;20513;-70
2021/06/07 10:10:48;;;;;;;10.80;4.28;;;;;;;;;;5024782;28;20021;-70
2021/06/07 10:13:13;;;;;;;6.55;3.83;;;;;;;;;;5024563;28;20453;-70
2021/06/07 10:15:40;;;;;;;8.13;4.05;;;;;;;;;;5027125;28;20497;-70
2021/06/07 10:18:16;;;;;;;9.98;4.40;;;;;;;;;;5027691;28;20044;-71
2021/06/07 10:20:54;;;;;;;11.40;3.90;;;;;;;;;;5028115;28;20021;-70
2021/06/07 10:23:29;;;;;;;6.35;3.78;;;;;;;;;;5027798;28;20033;-70
2021/06/07 10:25:56;;;;;;;9.30;4.05;;;;;;;;;;5029004;28;20075;-70
2021/06/07 10:28:25;;;;;;;5.90;4.20;;;;;;;;;;5033215;28;20083;-70
2021/06/07 10:30:51;;;;;;;7.40;3.90;;;;;;;;;;5091854;28;20429;-71
2021/06/07 10:33:24;;;;;;;6.82;4.07;;;;;;;;;;5091249;28;20031;-71
2021/06/07 10:35:49;;;;;;;5.50;3.80;;;;;;;;;;5088155;28;20039;-70
2021/06/07 10:38:26;;;;;;;5.85;3.83;;;;;;;;;;5091697;28;20032;-70
2021/06/07 10:40:53;;;;;;;9.95;4.10;;;;;;;;;;5091769;28;20051;-70
2021/06/07 10:43:18;;;;;;;9.10;3.78;;;;;;;;;;5091637;28;20032;-70
2021/06/07 10:45:44;;;;;;;9.45;3.92;;;;;;;;;;5092275;28;20020;-70
2021/06/07 10:48:10;;;;;;;5.90;3.72;;;;;;;;;;5097756;28;20031;-70
2021/06/07 10:50:39;;;;;;;9.32;4.10;;;;;;;;;;5092088;28;20047;-70
2021/06/07 10:53:06;;;;;;;8.55;4.20;;;;;;;;;;5091673;28;20047;-70
2021/06/07 10:55:33;;;;;;;6.90;3.80;;;;;;;;;;5088900;28;20043;-70
2021/06/07 10:58:12;;;;;;;6.93;4.03;;;;;;;;;;5093184;28;20061;-70
2021/06/07 11:00:44;;;;;;;8.10;4.07;;;;;;;;;;5091405;28;20387;-70
2021/06/07 11:03:23;;;;;;;7.85;4.18;;;;;;;;;;5093175;28;20047;-70
2021/06/07 11:05:50;;;;;;;6.95;4.55;;;;;;;;;;5090326;28;20024;-70
2021/06/07 11:08:17;;;;;;;6.20;4.07;;;;;;;;;;5090450;28;20123;-70
2021/06/07 11:10:43;;;;;;;7.05;4.05;;;;;;;;;;5091582;28;20487;-70
2021/06/07 11:13:10;;;;;;;7.85;4.40;;;;;;;;;;5090826;28;20032;-70
2021/06/07 11:15:37;;;;;;;6.60;3.95;;;;;;;;;;5090815;28;20032;-70
2021/06/07 11:18:19;;;;;;;6.15;3.70;;;;;;;;;;5085241;28;20040;-70
2021/06/07 11:20:45;;;;;;;7.50;3.85;;;;;;;;;;5081495;28;20024;-70
2021/06/07 11:23:18;;;;;;;8.05;3.88;;;;;;;;;;5089308;28;20349;-70
2021/06/07 11:25:46;;;;;;;8.73;4.38;;;;;;;;;;5089403;28;20020;-70
2021/06/07 11:28:28;;;;;;;7.82;5.20;;;;;;;;;;5086047;28;20031;-70
2021/06/07 11:30:53;;;;;;;12.23;5.40;;;;;;;;;;5088873;28;20051;-70
2021/06/07 11:33:19;;;;;;;10.95;5.50;;;;;;;;;;5088679;28;20032;-70
2021/06/07 11:35:44;;;;;;;8.52;5.38;;;;;;;;;;5088722;28;20386;-70
2021/06/07 11:38:29;;;;;;;10.32;5.30;;;;;;;;;;5087109;28;20487;-70
2021/06/07 11:40:54;;;;;;;8.57;5.50;;;;;;;;;;5087833;28;20400;-70
2021/06/07 11:43:38;;;;;;;10.35;5.55;;;;;;;;;;5088030;28;20026;-70
2021/06/07 11:46:03;;;;;;;7.75;5.55;;;;;;;;;;5087287;28;20020;-70
2021/06/07 11:48:58;;;;;;;9.18;5.20;;;;;;;;;;5087918;28;20028;-70
2021/06/07 11:51:31;;;;;;;11.35;6.20;;;;;;;;;;5005479;28;20096;-70
2021/06/07 11:53:57;;;;;;;9.10;5.43;;;;;;;;;;5007411;28;20033;-70
2021/06/07 11:56:22;;;;;;;9.02;5.20;;;;;;;;;;5005105;28;20458;-70
2021/06/07 11:58:48;;;;;;;9.55;5.03;;;;;;;;;;5016821;28;20107;-70
2021/06/07 12:01:13;;;;;;;8.55;4.80;;;;;;;;;;5006959;28;20049;-70
2021/06/07 12:03:42;;;;;;;11.00;5.10;;;;;;;;;;5017995;28;20045;-70
2021/06/07 12:06:08;;;;;;;8.68;5.05;;;;;;;;;;5016309;28;20488;-70
2021/06/07 12:08:33;;;;;;;7.78;5.30;;;;;;;;;;5005726;28;20141;-70
2021/06/07 12:11:03;;;;;;;10.65;6.22;;;;;;;;;;5009102;28;20567;-70
2021/06/07 12:13:32;;;;;;;8.90;5.72;;;;;;;;;;5007436;28;20466;-70
2021/06/07 12:16:05;;;;;;;9.23;5.53;;;;;;;;;;5003941;28;20919;-70
2021/06/07 12:18:41;;;;;;;10.38;5.40;;;;;;;;;;5004864;28;20022;-70
2021/06/07 12:21:14;;;;;;;9.43;5.78;;;;;;;;;;5003981;28;21051;-70
2021/06/07 12:23:47;;;;;;;9.70;5.53;;;;;;;;;;5005292;28;20128;-70
2021/06/07 12:29:40;;;;;;;11.40;5.82;;;;;;;;;;5027066;28;20220;-70
2021/06/07 12:32:35;;;;;;;9.77;6.13;;;;;;;;;;4988416;28;20030;-70
2021/06/07 12:35:28;;;;;;;11.23;6.45;;;;;;;;;;4994868;28;20093;-70
2021/06/07 12:37:54;;;;;;;10.35;6.25;;;;;;;;;;4997310;28;20057;-70
2021/06/07 12:40:21;;;;;;;13.25;6.95;;;;;;;;;;4991652;28;20456;-70
2021/06/07 12:42:50;;;;;;;10.07;5.30;;;;;;;;;;5001563;28;20183;-70
2021/06/07 12:45:18;;;;;;;7.72;4.93;;;;;;;;;;4999322;28;20597;-70
2021/06/07 12:47:43;;;;;;;9.88;4.57;;;;;;;;;;4995589;28;20477;-70
2021/06/07 12:50:14;;;;;;;12.93;5.03;;;;;;;;;;4991167;28;20477;-70
2021/06/07 12:52:40;;;;;;;8.45;4.53;;;;;;;;;;4994129;28;20037;-70
2021/06/07 12:55:06;;;;;;;7.53;4.78;;;;;;;;;;4992971;28;20578;-70
2021/06/07 12:57:32;;;;;;;7.25;4.63;;;;;;;;;;4987733;28;20038;-70
2021/06/07 12:59:57;;;;;;;10.35;4.97;;;;;;;;;;4992546;28;20042;-70
2021/06/07 13:02:34;;;;;;;8.80;5.20;;;;;;;;;;5003560;28;20033;-70
2021/06/07 13:05:00;;;;;;;9.27;5.20;;;;;;;;;;5033462;28;20040;-70
2021/06/07 13:07:26;;;;;;;11.70;5.30;;;;;;;;;;5084189;28;20032;-70
2021/06/07 13:09:53;;;;;;;9.13;5.15;;;;;;;;;;5087172;28;20381;-70
2021/06/07 13:12:25;;;;;;;9.50;5.15;;;;;;;;;;5086470;28;20076;-70
2021/06/07 13:14:54;;;;;;;7.18;4.88;;;;;;;;;;5086124;28;20115;-70
2021/06/07 13:17:20;;;;;;;10.18;5.60;;;;;;;;;;5083275;28;20035;-70
2021/06/07 13:19:56;;;;;;;10.93;5.38;;;;;;;;;;5086761;28;20016;-70
2021/06/07 13:22:23;;;;;;;7.18;4.85;;;;;;;;;;5086172;28;20028;-70
2021/06/07 13:24:48;;;;;;;7.53;4.68;;;;;;;;;;5085014;28;20027;-70
2021/06/07 13:27:28;;;;;;;10.07;5.20;;;;;;;;;;5090444;28;20407;-70
2021/06/07 13:30:07;;;;;;;8.75;4.78;;;;;;;;;;5090122;28;20362;-70
2021/06/07 13:32:34;;;;;;;8.05;4.95;;;;;;;;;;5091689;28;20023;-70
2021/06/07 13:35:05;;;;;;;8.20;4.65;;;;;;;;;;5091599;28;20024;-70
2021/06/07 13:37:51;;;;;;;8.60;5.15;;;;;;;;;;5090936;28;20016;-71
2021/06/07 13:40:24;;;;;;;10.60;4.60;;;;;;;;;;5094875;28;20035;-71
2021/06/07 13:43:05;;;;;;;8.90;4.90;;;;;;;;;;5091452;28;20041;-71
2021/06/07 13:45:40;;;;;;;12.23;4.93;;;;;;;;;;5082171;28;20044;-71
2021/06/07 13:48:13;;;;;;;8.02;4.63;;;;;;;;;;5090789;28;20084;-69
2021/06/07 13:50:46;;;;;;;8.75;5.10;;;;;;;;;;5090580;28;20019;-69
2021/06/07 13:53:12;;;;;;;8.73;5.13;;;;;;;;;;5091490;28;20594;-69
2021/06/07 13:55:42;;;;;;;11.45;5.40;;;;;;;;;;5091134;28;20035;-69
2021/06/07 13:58:11;;;;;;;11.80;5.38;;;;;;;;;;5090919;28;20082;-69
2021/06/07 14:00:57;;;;;;;9.73;5.25;;;;;;;;;;5091170;28;20103;-69
2021/06/07 14:03:24;;;;;;;9.80;4.80;;;;;;;;;;5087928;28;20064;-69
2021/06/07 14:05:53;;;;;;;7.70;4.78;;;;;;;;;;5083133;28;20012;-69
2021/06/07 14:08:29;;;;;;;12.38;5.10;;;;;;;;;;5090471;28;20051;-69
2021/06/07 14:10:55;;;;;;;10.23;4.80;;;;;;;;;;5089921;28;20409;-69
2021/06/07 14:13:21;;;;;;;9.07;5.60;;;;;;;;;;5089626;28;20470;-69
2021/06/07 14:15:47;;;;;;;12.10;5.40;;;;;;;;;;5090946;28;20043;-69
2021/06/07 14:18:13;;;;;;;9.93;5.35;;;;;;;;;;5084425;28;20072;-69
2021/06/07 14:20:41;;;;;;;12.95;5.10;;;;;;;;;;5086757;28;20028;-69
2021/06/07 14:25:50;;;;;;;12.23;5.13;;;;;;;;;;5086240;28;20123;-69
2021/06/07 14:28:16;;;;;;;8.90;4.60;;;;;;;;;;5087341;28;20106;-69
2021/06/07 14:30:44;;;;;;;7.43;4.85;;;;;;;;;;5087678;28;20119;-69
2021/06/07 14:33:10;;;;;;;9.18;4.95;;;;;;;;;;5086551;28;20036;-69
2021/06/07 14:35:36;;;;;;;10.55;5.10;;;;;;;;;;5083390;28;20032;-69
2021/06/07 14:38:03;;;;;;;8.73;4.72;;;;;;;;;;5086402;28;20114;-69
2021/06/07 14:40:29;;;;;;;7.60;4.72;;;;;;;;;;5086116;28;20028;-69
2021/06/07 14:42:55;;;;;;;9.48;4.93;;;;;;;;;;5086140;28;20028;-69
2021/06/07 14:45:20;;;;;;;8.35;5.03;;;;;;;;;;5087755;28;20028;-69